Garryowen, MT (59031)

10:16 AM MDT on July 30, 2014 (GMT -0600)
Sheridan County (KSHR) Elev 3967 ft | 44.76 °N, 106.97 °W | Change Station

Current weather conditions updated 23 minutes ago

Clear
Clear
74 °F
Feels Like 74 °F
N
4
Wind Variable Wind from ESE

Today is forecast to be nearly the same temperature as yesterday.

Today
High -- | Low -- °F
--% Chance of Precip.
Yesterday
High -- | Low -- °F
Precip. -- in
5:50 AM 8:39 PM
Waxing Crescent, 12% visible
Pressure 30.19 in
Visibility 10.0 miles
Clouds Clear
Dew Point 48 °F
Humidity 40%
Rainfall 0.00 in
Snow Depth Not available.
UV 6 out of 12
Pollen 6.60 out of 12
Air Quality Not available.
Flu Activity Not available.
METAR KSHR 301553Z AUTO 11003KT 10SM CLR 23/09 A3028 RMK AO2 SLP222 T02330089

More Conditions Fewer Conditions

Pressure 30.19 in
Visibility 10.0 miles
Clouds Clear
Dew Point 48 °F
Humidity 40%
Rainfall 0.00 in
Snow Depth Not available.
UV 6 out of 12
Pollen 6.60 out of 12
Air Quality Not available.
Flu Activity Not available.
METAR KSHR 301553Z AUTO 11003KT 10SM CLR 23/09 A3028 RMK AO2 SLP222 T02330089

More Conditions Fewer Conditions

10-Day Weather Forecast

Almanac

Astronomy

Jul. 30, 2014 Rise Set
Actual Time 5:50 AM MDT 8:39 PM MDT
Civil Twilight 5:16 AM MDT 9:13 PM MDT
Nautical Twilight 4:32 AM MDT 9:57 PM MDT
Astronomical Twilight 3:41 AM MDT 10:47 PM MDT
Moon 9:38 AM MDT 10:08 PM MDT
Length of Visible Light 15h 57m
Length of Day
14h 48m
Tomorrow will be 2m 25s shorter.
Waxing Crescent, 12% of the Moon is Illuminated
Today
Waxing Crescent
Aug 3
First Quarter
Aug 10
Full
Aug 17
Last Quarter
Aug 25
New

Today's Extremes

State Highs State Lows

Community

WunderPhotos

Upload Photos

1,739,121 photos uploaded!

WunderBlogs® & News

By Dr. Jeff Masters
Director of Meteorology, Weather Underground
By Kari Strenfel
Meteorologist, Weather Underground
By Christopher C. Burt
Weather Historian, Weather Underground
July 30, 2014
July 30, 2014
July 30, 2014

Nearby

Snow Depth

Station Depth Elevation
Cole Creek 0 in 7850 ft
Burnt Mountain 0 in 5880 ft
White Mill 1 in 8700 ft
Fisher Creek 0 in 9100 ft
Northeast Entrance 0 in 7350 ft

Earthquake Activity

City Distance Mag. Time & Date
No recent earthquake activity has been reported nearby.
Minimum magnitude displayed is 2.5.

Coastal Water Temperatures

Place Temperature
No Stations Reporting

Nearby Weather Stations

Station Location Temp. Heat Index Dew Point Humidity Wind Precip. Elev Updated Type
RAWS LITTLE BIGHORN MT, Crow Agency, MT 73 °F 77 °F 52 °F 47% South  at  4 mph 0.00 in / hr 3196 ft 8:59 AM MDT MADIS

Show More Stations Show Fewer Stations